sensor_id;sensor_type;location;lat;lon;timestamp;P1;durP1;ratioP1;P2;durP2;ratioP2
13425;SDS011;6785;57.918;12.530;2023-03-24T00:00:57;25.13;;;4.93;;
13425;SDS011;6785;57.918;12.530;2023-03-24T00:03:24;36.70;;;5.90;;
13425;SDS011;6785;57.918;12.530;2023-03-24T00:05:55;30.10;;;5.87;;
13425;SDS011;6785;57.918;12.530;2023-03-24T00:08:25;30.63;;;5.17;;
13425;SDS011;6785;57.918;12.530;2023-03-24T00:10:57;26.40;;;5.33;;
13425;SDS011;6785;57.918;12.530;2023-03-24T00:13:26;25.90;;;4.43;;
13425;SDS011;6785;57.918;12.530;2023-03-24T00:15:53;22.67;;;4.60;;
13425;SDS011;6785;57.918;12.530;2023-03-24T00:18:20;34.90;;;5.27;;
13425;SDS011;6785;57.918;12.530;2023-03-24T00:20:50;31.77;;;5.93;;
13425;SDS011;6785;57.918;12.530;2023-03-24T00:23:24;31.73;;;5.83;;
13425;SDS011;6785;57.918;12.530;2023-03-24T00:25:58;27.43;;;5.70;;
13425;SDS011;6785;57.918;12.530;2023-03-24T00:28:26;33.00;;;5.33;;
13425;SDS011;6785;57.918;12.530;2023-03-24T00:30:53;38.60;;;5.70;;
13425;SDS011;6785;57.918;12.530;2023-03-24T00:33:20;30.33;;;5.40;;
13425;SDS011;6785;57.918;12.530;2023-03-24T00:35:48;25.20;;;5.67;;
13425;SDS011;6785;57.918;12.530;2023-03-24T00:38:14;39.70;;;6.63;;
13425;SDS011;6785;57.918;12.530;2023-03-24T00:40:44;25.53;;;5.33;;
13425;SDS011;6785;57.918;12.530;2023-03-24T00:43:12;26.37;;;5.33;;
13425;SDS011;6785;57.918;12.530;2023-03-24T00:45:39;31.33;;;6.03;;
13425;SDS011;6785;57.918;12.530;2023-03-24T00:48:10;27.63;;;6.50;;
13425;SDS011;6785;57.918;12.530;2023-03-24T00:50:37;32.50;;;6.27;;
13425;SDS011;6785;57.918;12.530;2023-03-24T00:53:03;37.67;;;6.17;;
13425;SDS011;6785;57.918;12.530;2023-03-24T00:55:30;27.20;;;5.43;;
13425;SDS011;6785;57.918;12.530;2023-03-24T00:57:59;44.20;;;6.57;;
13425;SDS011;6785;57.918;12.530;2023-03-24T01:00:26;36.40;;;6.13;;
13425;SDS011;6785;57.918;12.530;2023-03-24T01:02:54;36.10;;;6.23;;
13425;SDS011;6785;57.918;12.530;2023-03-24T01:05:23;32.27;;;5.87;;
13425;SDS011;6785;57.918;12.530;2023-03-24T01:07:51;39.53;;;6.63;;
13425;SDS011;6785;57.918;12.530;2023-03-24T01:10:21;45.10;;;7.80;;
13425;SDS011;6785;57.918;12.530;2023-03-24T01:12:50;38.73;;;7.60;;
13425;SDS011;6785;57.918;12.530;2023-03-24T01:15:20;35.67;;;5.73;;
13425;SDS011;6785;57.918;12.530;2023-03-24T01:17:50;41.00;;;6.30;;
13425;SDS011;6785;57.918;12.530;2023-03-24T01:20:18;34.60;;;5.73;;
13425;SDS011;6785;57.918;12.530;2023-03-24T01:22:47;31.37;;;6.63;;
13425;SDS011;6785;57.918;12.530;2023-03-24T01:25:15;38.33;;;6.90;;
13425;SDS011;6785;57.918;12.530;2023-03-24T01:27:43;36.13;;;6.17;;
13425;SDS011;6785;57.918;12.530;2023-03-24T01:30:11;41.70;;;6.70;;
13425;SDS011;6785;57.918;12.530;2023-03-24T01:32:40;41.63;;;6.97;;
13425;SDS011;6785;57.918;12.530;2023-03-24T01:35:08;34.17;;;6.57;;
13425;SDS011;6785;57.918;12.530;2023-03-24T01:37:36;47.57;;;7.93;;
13425;SDS011;6785;57.918;12.530;2023-03-24T01:40:04;41.60;;;7.63;;
13425;SDS011;6785;57.918;12.530;2023-03-24T01:42:32;37.97;;;7.27;;
13425;SDS011;6785;57.918;12.530;2023-03-24T01:45:00;37.63;;;8.00;;
13425;SDS011;6785;57.918;12.530;2023-03-24T01:47:48;39.17;;;8.50;;
13425;SDS011;6785;57.918;12.530;2023-03-24T01:50:15;35.07;;;6.80;;
13425;SDS011;6785;57.918;12.530;2023-03-24T01:52:42;47.77;;;7.87;;
13425;SDS011;6785;57.918;12.530;2023-03-24T01:55:10;46.60;;;8.87;;
13425;SDS011;6785;57.918;12.530;2023-03-24T01:57:43;40.13;;;7.07;;
13425;SDS011;6785;57.918;12.530;2023-03-24T02:00:13;52.67;;;8.67;;
13425;SDS011;6785;57.918;12.530;2023-03-24T02:02:44;41.17;;;7.97;;
13425;SDS011;6785;57.918;12.530;2023-03-24T02:05:20;34.20;;;6.50;;
13425;SDS011;6785;57.918;12.530;2023-03-24T02:07:49;50.67;;;8.57;;
13425;SDS011;6785;57.918;12.530;2023-03-24T02:10:20;42.63;;;8.10;;
13425;SDS011;6785;57.918;12.530;2023-03-24T02:12:48;45.20;;;7.43;;
13425;SDS011;6785;57.918;12.530;2023-03-24T02:15:16;51.87;;;8.07;;
13425;SDS011;6785;57.918;12.530;2023-03-24T02:17:54;49.03;;;8.47;;
13425;SDS011;6785;57.918;12.530;2023-03-24T02:20:31;45.43;;;8.00;;
13425;SDS011;6785;57.918;12.530;2023-03-24T02:23:27;36.67;;;7.97;;
13425;SDS011;6785;57.918;12.530;2023-03-24T02:29:32;49.17;;;7.77;;
13425;SDS011;6785;57.918;12.530;2023-03-24T02:35:50;36.70;;;7.03;;
13425;SDS011;6785;57.918;12.530;2023-03-24T02:41:36;38.97;;;8.13;;
13425;SDS011;6785;57.918;12.530;2023-03-24T02:44:12;36.17;;;7.10;;
13425;SDS011;6785;57.918;12.530;2023-03-24T02:46:45;34.67;;;7.80;;
13425;SDS011;6785;57.918;12.530;2023-03-24T02:49:18;50.33;;;8.13;;
13425;SDS011;6785;57.918;12.530;2023-03-24T02:51:53;42.97;;;8.60;;
13425;SDS011;6785;57.918;12.530;2023-03-24T02:54:28;28.20;;;7.47;;
13425;SDS011;6785;57.918;12.530;2023-03-24T02:57:05;49.40;;;10.13;;
13425;SDS011;6785;57.918;12.530;2023-03-24T02:59:38;45.33;;;8.67;;
13425;SDS011;6785;57.918;12.530;2023-03-24T03:02:08;42.73;;;8.20;;
13425;SDS011;6785;57.918;12.530;2023-03-24T03:04:41;59.70;;;9.63;;
13425;SDS011;6785;57.918;12.530;2023-03-24T03:07:14;45.07;;;8.70;;
13425;SDS011;6785;57.918;12.530;2023-03-24T03:09:46;41.67;;;9.70;;
13425;SDS011;6785;57.918;12.530;2023-03-24T03:12:19;45.73;;;9.53;;
13425;SDS011;6785;57.918;12.530;2023-03-24T03:14:50;44.73;;;8.57;;
13425;SDS011;6785;57.918;12.530;2023-03-24T03:17:20;37.13;;;8.83;;
13425;SDS011;6785;57.918;12.530;2023-03-24T03:19:53;47.70;;;8.73;;
13425;SDS011;6785;57.918;12.530;2023-03-24T03:22:24;39.67;;;9.27;;
13425;SDS011;6785;57.918;12.530;2023-03-24T03:24:56;34.13;;;7.93;;
13425;SDS011;6785;57.918;12.530;2023-03-24T03:27:29;51.43;;;10.40;;
13425;SDS011;6785;57.918;12.530;2023-03-24T03:30:04;49.20;;;10.70;;
13425;SDS011;6785;57.918;12.530;2023-03-24T03:32:34;54.40;;;9.63;;
13425;SDS011;6785;57.918;12.530;2023-03-24T03:35:07;48.83;;;8.77;;
13425;SDS011;6785;57.918;12.530;2023-03-24T03:37:39;49.50;;;8.30;;
13425;SDS011;6785;57.918;12.530;2023-03-24T03:40:15;50.27;;;8.73;;
13425;SDS011;6785;57.918;12.530;2023-03-24T03:42:46;43.77;;;8.97;;
13425;SDS011;6785;57.918;12.530;2023-03-24T03:45:15;35.03;;;8.00;;
13425;SDS011;6785;57.918;12.530;2023-03-24T03:47:42;42.37;;;8.73;;
13425;SDS011;6785;57.918;12.530;2023-03-24T03:50:10;51.70;;;9.00;;
13425;SDS011;6785;57.918;12.530;2023-03-24T03:52:37;36.93;;;7.87;;
13425;SDS011;6785;57.918;12.530;2023-03-24T03:55:08;42.87;;;8.80;;
13425;SDS011;6785;57.918;12.530;2023-03-24T03:57:37;36.33;;;7.60;;
13425;SDS011;6785;57.918;12.530;2023-03-24T04:00:07;45.17;;;9.13;;
13425;SDS011;6785;57.918;12.530;2023-03-24T04:02:42;42.33;;;8.13;;
13425;SDS011;6785;57.918;12.530;2023-03-24T04:05:25;32.03;;;8.23;;
13425;SDS011;6785;57.918;12.530;2023-03-24T04:08:03;38.43;;;7.70;;
13425;SDS011;6785;57.918;12.530;2023-03-24T04:10:43;37.00;;;8.23;;
13425;SDS011;6785;57.918;12.530;2023-03-24T04:13:36;33.73;;;8.27;;
13425;SDS011;6785;57.918;12.530;2023-03-24T04:16:12;34.77;;;8.33;;
13425;SDS011;6785;57.918;12.530;2023-03-24T04:18:53;34.90;;;8.90;;
13425;SDS011;6785;57.918;12.530;2023-03-24T04:21:37;31.67;;;7.23;;
13425;SDS011;6785;57.918;12.530;2023-03-24T04:24:17;46.67;;;8.60;;
13425;SDS011;6785;57.918;12.530;2023-03-24T04:26:57;40.47;;;7.03;;
13425;SDS011;6785;57.918;12.530;2023-03-24T04:29:34;43.07;;;7.23;;
13425;SDS011;6785;57.918;12.530;2023-03-24T04:32:12;48.67;;;7.57;;
13425;SDS011;6785;57.918;12.530;2023-03-24T04:34:45;34.97;;;8.00;;
13425;SDS011;6785;57.918;12.530;2023-03-24T04:37:15;42.10;;;8.57;;
13425;SDS011;6785;57.918;12.530;2023-03-24T04:39:46;39.53;;;7.97;;
13425;SDS011;6785;57.918;12.530;2023-03-24T04:42:15;41.83;;;7.80;;
13425;SDS011;6785;57.918;12.530;2023-03-24T04:44:45;51.83;;;9.67;;
13425;SDS011;6785;57.918;12.530;2023-03-24T04:47:16;42.87;;;8.07;;
13425;SDS011;6785;57.918;12.530;2023-03-24T04:49:45;43.83;;;7.83;;
13425;SDS011;6785;57.918;12.530;2023-03-24T04:52:12;51.27;;;7.70;;
13425;SDS011;6785;57.918;12.530;2023-03-24T04:54:38;45.33;;;8.60;;
13425;SDS011;6785;57.918;12.530;2023-03-24T04:57:05;36.63;;;9.03;;
13425;SDS011;6785;57.918;12.530;2023-03-24T04:59:32;36.77;;;8.50;;
13425;SDS011;6785;57.918;12.530;2023-03-24T05:01:59;44.63;;;9.00;;
13425;SDS011;6785;57.918;12.530;2023-03-24T05:04:28;28.40;;;7.17;;
13425;SDS011;6785;57.918;12.530;2023-03-24T05:06:55;35.43;;;9.37;;
13425;SDS011;6785;57.918;12.530;2023-03-24T05:09:22;38.53;;;8.30;;
13425;SDS011;6785;57.918;12.530;2023-03-24T05:11:50;51.50;;;9.50;;
13425;SDS011;6785;57.918;12.530;2023-03-24T05:14:17;36.97;;;8.77;;
13425;SDS011;6785;57.918;12.530;2023-03-24T05:16:44;31.30;;;8.10;;
13425;SDS011;6785;57.918;12.530;2023-03-24T05:19:10;40.67;;;8.00;;
13425;SDS011;6785;57.918;12.530;2023-03-24T05:21:38;39.53;;;7.80;;
13425;SDS011;6785;57.918;12.530;2023-03-24T05:24:05;35.47;;;8.53;;
13425;SDS011;6785;57.918;12.530;2023-03-24T05:26:33;37.00;;;6.70;;
13425;SDS011;6785;57.918;12.530;2023-03-24T05:28:59;31.60;;;7.47;;
13425;SDS011;6785;57.918;12.530;2023-03-24T05:31:26;40.97;;;7.50;;
13425;SDS011;6785;57.918;12.530;2023-03-24T05:33:53;38.17;;;7.97;;
13425;SDS011;6785;57.918;12.530;2023-03-24T05:36:20;41.50;;;7.80;;
13425;SDS011;6785;57.918;12.530;2023-03-24T05:38:48;33.67;;;7.63;;
13425;SDS011;6785;57.918;12.530;2023-03-24T05:41:15;34.63;;;6.97;;
13425;SDS011;6785;57.918;12.530;2023-03-24T05:43:42;30.97;;;6.67;;
13425;SDS011;6785;57.918;12.530;2023-03-24T05:46:08;33.67;;;7.40;;
13425;SDS011;6785;57.918;12.530;2023-03-24T05:48:35;30.13;;;7.20;;
13425;SDS011;6785;57.918;12.530;2023-03-24T05:51:02;33.63;;;8.03;;
13425;SDS011;6785;57.918;12.530;2023-03-24T05:53:29;34.83;;;7.37;;
13425;SDS011;6785;57.918;12.530;2023-03-24T05:55:57;28.47;;;7.90;;
13425;SDS011;6785;57.918;12.530;2023-03-24T05:58:24;27.77;;;7.13;;
13425;SDS011;6785;57.918;12.530;2023-03-24T06:00:51;32.27;;;6.97;;
13425;SDS011;6785;57.918;12.530;2023-03-24T06:03:18;26.27;;;6.53;;
13425;SDS011;6785;57.918;12.530;2023-03-24T06:05:45;30.73;;;6.83;;
13425;SDS011;6785;57.918;12.530;2023-03-24T06:08:12;33.80;;;8.40;;
13425;SDS011;6785;57.918;12.530;2023-03-24T06:10:40;32.10;;;8.40;;
13425;SDS011;6785;57.918;12.530;2023-03-24T06:13:08;34.67;;;9.17;;
13425;SDS011;6785;57.918;12.530;2023-03-24T06:15:35;28.00;;;7.43;;
13425;SDS011;6785;57.918;12.530;2023-03-24T06:18:03;30.50;;;7.93;;
13425;SDS011;6785;57.918;12.530;2023-03-24T06:20:30;28.83;;;7.13;;
13425;SDS011;6785;57.918;12.530;2023-03-24T06:22:57;34.47;;;9.17;;
13425;SDS011;6785;57.918;12.530;2023-03-24T06:25:24;29.23;;;7.80;;
13425;SDS011;6785;57.918;12.530;2023-03-24T06:27:52;30.20;;;8.30;;
13425;SDS011;6785;57.918;12.530;2023-03-24T06:30:20;28.70;;;7.87;;
13425;SDS011;6785;57.918;12.530;2023-03-24T06:32:47;32.40;;;7.67;;
13425;SDS011;6785;57.918;12.530;2023-03-24T06:35:14;27.67;;;7.53;;
13425;SDS011;6785;57.918;12.530;2023-03-24T06:37:41;26.27;;;6.70;;
13425;SDS011;6785;57.918;12.530;2023-03-24T06:40:09;26.13;;;7.43;;
13425;SDS011;6785;57.918;12.530;2023-03-24T06:42:40;29.53;;;7.83;;
13425;SDS011;6785;57.918;12.530;2023-03-24T06:45:07;25.57;;;7.13;;
13425;SDS011;6785;57.918;12.530;2023-03-24T06:47:36;25.50;;;7.43;;
13425;SDS011;6785;57.918;12.530;2023-03-24T06:50:03;25.97;;;5.80;;
13425;SDS011;6785;57.918;12.530;2023-03-24T06:52:31;17.07;;;5.90;;
13425;SDS011;6785;57.918;12.530;2023-03-24T06:54:58;24.80;;;5.67;;
13425;SDS011;6785;57.918;12.530;2023-03-24T06:57:24;19.63;;;5.40;;
13425;SDS011;6785;57.918;12.530;2023-03-24T06:59:51;21.23;;;5.27;;
13425;SDS011;6785;57.918;12.530;2023-03-24T07:02:18;17.30;;;4.80;;
13425;SDS011;6785;57.918;12.530;2023-03-24T07:04:46;13.53;;;4.33;;
13425;SDS011;6785;57.918;12.530;2023-03-24T07:07:14;11.50;;;4.50;;
13425;SDS011;6785;57.918;12.530;2023-03-24T07:09:41;10.87;;;3.87;;
13425;SDS011;6785;57.918;12.530;2023-03-24T07:12:08;15.93;;;3.83;;
13425;SDS011;6785;57.918;12.530;2023-03-24T07:14:36;11.73;;;3.63;;
13425;SDS011;6785;57.918;12.530;2023-03-24T07:17:02;14.53;;;3.37;;
13425;SDS011;6785;57.918;12.530;2023-03-24T07:19:29;14.87;;;4.60;;
13425;SDS011;6785;57.918;12.530;2023-03-24T07:21:58;11.63;;;3.00;;
13425;SDS011;6785;57.918;12.530;2023-03-24T07:24:25;8.13;;;2.50;;
13425;SDS011;6785;57.918;12.530;2023-03-24T07:26:51;8.93;;;3.00;;
13425;SDS011;6785;57.918;12.530;2023-03-24T07:29:18;7.93;;;2.83;;
13425;SDS011;6785;57.918;12.530;2023-03-24T07:31:45;9.33;;;2.60;;
13425;SDS011;6785;57.918;12.530;2023-03-24T07:34:12;11.93;;;3.27;;
13425;SDS011;6785;57.918;12.530;2023-03-24T07:36:39;8.90;;;2.73;;
13425;SDS011;6785;57.918;12.530;2023-03-24T07:39:08;5.60;;;2.07;;
13425;SDS011;6785;57.918;12.530;2023-03-24T07:41:35;9.87;;;2.97;;
13425;SDS011;6785;57.918;12.530;2023-03-24T07:44:02;5.20;;;2.10;;
13425;SDS011;6785;57.918;12.530;2023-03-24T07:46:28;6.73;;;2.47;;
13425;SDS011;6785;57.918;12.530;2023-03-24T07:48:55;4.77;;;2.57;;
13425;SDS011;6785;57.918;12.530;2023-03-24T07:51:22;5.03;;;2.80;;
13425;SDS011;6785;57.918;12.530;2023-03-24T07:53:49;8.30;;;3.90;;
13425;SDS011;6785;57.918;12.530;2023-03-24T07:56:17;5.43;;;3.40;;
13425;SDS011;6785;57.918;12.530;2023-03-24T07:58:44;5.07;;;3.57;;
13425;SDS011;6785;57.918;12.530;2023-03-24T08:01:11;7.90;;;2.93;;
13425;SDS011;6785;57.918;12.530;2023-03-24T08:03:38;4.80;;;2.47;;
13425;SDS011;6785;57.918;12.530;2023-03-24T08:06:06;9.90;;;2.63;;
13425;SDS011;6785;57.918;12.530;2023-03-24T08:08:33;5.70;;;2.43;;
13425;SDS011;6785;57.918;12.530;2023-03-24T08:11:00;6.00;;;2.90;;
13425;SDS011;6785;57.918;12.530;2023-03-24T08:13:28;7.37;;;4.67;;
13425;SDS011;6785;57.918;12.530;2023-03-24T08:15:55;8.77;;;4.20;;
13425;SDS011;6785;57.918;12.530;2023-03-24T08:18:22;3.43;;;2.37;;
13425;SDS011;6785;57.918;12.530;2023-03-24T08:20:49;4.43;;;1.93;;
13425;SDS011;6785;57.918;12.530;2023-03-24T08:23:21;2.77;;;2.23;;
13425;SDS011;6785;57.918;12.530;2023-03-24T08:25:48;4.23;;;1.73;;
13425;SDS011;6785;57.918;12.530;2023-03-24T08:28:15;2.50;;;1.73;;
13425;SDS011;6785;57.918;12.530;2023-03-24T08:30:43;2.10;;;1.40;;
13425;SDS011;6785;57.918;12.530;2023-03-24T08:33:10;2.03;;;1.17;;
13425;SDS011;6785;57.918;12.530;2023-03-24T08:35:38;2.33;;;1.50;;
13425;SDS011;6785;57.918;12.530;2023-03-24T08:38:05;3.43;;;1.40;;
13425;SDS011;6785;57.918;12.530;2023-03-24T08:40:34;2.07;;;1.60;;
13425;SDS011;6785;57.918;12.530;2023-03-24T08:43:02;2.70;;;1.43;;
13425;SDS011;6785;57.918;12.530;2023-03-24T08:45:32;1.53;;;1.40;;
13425;SDS011;6785;57.918;12.530;2023-03-24T08:48:01;4.43;;;1.47;;
13425;SDS011;6785;57.918;12.530;2023-03-24T08:50:31;2.60;;;1.70;;
13425;SDS011;6785;57.918;12.530;2023-03-24T08:52:59;5.37;;;1.50;;
13425;SDS011;6785;57.918;12.530;2023-03-24T08:55:27;3.47;;;1.67;;
13425;SDS011;6785;57.918;12.530;2023-03-24T08:57:54;4.30;;;1.53;;
13425;SDS011;6785;57.918;12.530;2023-03-24T09:00:21;2.83;;;1.40;;
13425;SDS011;6785;57.918;12.530;2023-03-24T09:02:49;2.23;;;1.10;;
13425;SDS011;6785;57.918;12.530;2023-03-24T09:05:19;1.40;;;1.30;;
13425;SDS011;6785;57.918;12.530;2023-03-24T09:07:47;4.50;;;1.40;;
13425;SDS011;6785;57.918;12.530;2023-03-24T09:10:15;2.57;;;1.10;;
13425;SDS011;6785;57.918;12.530;2023-03-24T09:12:42;3.93;;;1.57;;
13425;SDS011;6785;57.918;12.530;2023-03-24T09:15:10;2.03;;;1.13;;
13425;SDS011;6785;57.918;12.530;2023-03-24T09:17:37;2.10;;;1.30;;
13425;SDS011;6785;57.918;12.530;2023-03-24T09:20:06;3.37;;;1.50;;
13425;SDS011;6785;57.918;12.530;2023-03-24T09:22:37;2.00;;;1.20;;
13425;SDS011;6785;57.918;12.530;2023-03-24T09:25:04;4.93;;;1.57;;
13425;SDS011;6785;57.918;12.530;2023-03-24T09:27:32;3.93;;;1.40;;
13425;SDS011;6785;57.918;12.530;2023-03-24T09:29:59;1.33;;;1.23;;
13425;SDS011;6785;57.918;12.530;2023-03-24T09:32:26;2.50;;;1.40;;
13425;SDS011;6785;57.918;12.530;2023-03-24T09:34:53;4.43;;;1.70;;
13425;SDS011;6785;57.918;12.530;2023-03-24T09:37:20;2.03;;;1.60;;
13425;SDS011;6785;57.918;12.530;2023-03-24T09:39:48;2.60;;;1.87;;
13425;SDS011;6785;57.918;12.530;2023-03-24T09:42:17;3.73;;;1.73;;
13425;SDS011;6785;57.918;12.530;2023-03-24T09:44:47;1.60;;;1.47;;
13425;SDS011;6785;57.918;12.530;2023-03-24T09:47:20;3.03;;;1.60;;
13425;SDS011;6785;57.918;12.530;2023-03-24T09:49:54;1.10;;;1.00;;
13425;SDS011;6785;57.918;12.530;2023-03-24T09:52:26;1.87;;;1.30;;
13425;SDS011;6785;57.918;12.530;2023-03-24T09:54:58;1.20;;;1.10;;
13425;SDS011;6785;57.918;12.530;2023-03-24T09:57:27;1.13;;;1.03;;
13425;SDS011;6785;57.918;12.530;2023-03-24T10:00:00;1.20;;;1.10;;
13425;SDS011;6785;57.918;12.530;2023-03-24T10:02:28;1.10;;;0.90;;
13425;SDS011;6785;57.918;12.530;2023-03-24T10:04:55;1.00;;;0.80;;
13425;SDS011;6785;57.918;12.530;2023-03-24T10:07:24;1.70;;;0.87;;
13425;SDS011;6785;57.918;12.530;2023-03-24T10:09:56;1.47;;;0.80;;
13425;SDS011;6785;57.918;12.530;2023-03-24T10:12:31;1.37;;;0.63;;
13425;SDS011;6785;57.918;12.530;2023-03-24T10:15:03;0.97;;;0.70;;
13425;SDS011;6785;57.918;12.530;2023-03-24T10:17:40;1.57;;;0.80;;
13425;SDS011;6785;57.918;12.530;2023-03-24T10:20:18;1.03;;;0.80;;
13425;SDS011;6785;57.918;12.530;2023-03-24T10:22:54;0.53;;;0.53;;
13425;SDS011;6785;57.918;12.530;2023-03-24T10:25:25;0.60;;;0.60;;
13425;SDS011;6785;57.918;12.530;2023-03-24T10:28:06;0.80;;;0.60;;
13425;SDS011;6785;57.918;12.530;2023-03-24T10:30:41;1.93;;;0.53;;
13425;SDS011;6785;57.918;12.530;2023-03-24T10:33:09;0.70;;;0.70;;
13425;SDS011;6785;57.918;12.530;2023-03-24T10:35:37;1.00;;;0.90;;
13425;SDS011;6785;57.918;12.530;2023-03-24T10:38:11;0.97;;;0.73;;
13425;SDS011;6785;57.918;12.530;2023-03-24T10:40:42;0.80;;;0.80;;
13425;SDS011;6785;57.918;12.530;2023-03-24T10:43:12;1.37;;;0.90;;
13425;SDS011;6785;57.918;12.530;2023-03-24T10:45:42;1.50;;;0.83;;
13425;SDS011;6785;57.918;12.530;2023-03-24T10:48:12;1.00;;;0.90;;
13425;SDS011;6785;57.918;12.530;2023-03-24T10:50:41;0.57;;;0.57;;
13425;SDS011;6785;57.918;12.530;2023-03-24T10:53:14;0.60;;;0.60;;
13425;SDS011;6785;57.918;12.530;2023-03-24T10:55:42;0.30;;;0.30;;
13425;SDS011;6785;57.918;12.530;2023-03-24T10:58:12;0.60;;;0.60;;
13425;SDS011;6785;57.918;12.530;2023-03-24T11:00:45;0.60;;;0.60;;
13425;SDS011;6785;57.918;12.530;2023-03-24T11:03:13;0.50;;;0.50;;
13425;SDS011;6785;57.918;12.530;2023-03-24T11:05:42;0.20;;;0.20;;
13425;SDS011;6785;57.918;12.530;2023-03-24T11:10:58;1.83;;;0.60;;
13425;SDS011;6785;57.918;12.530;2023-03-24T11:13:28;0.70;;;0.70;;
13425;SDS011;6785;57.918;12.530;2023-03-24T11:16:03;1.13;;;0.93;;
13425;SDS011;6785;57.918;12.530;2023-03-24T11:18:32;0.80;;;0.80;;
13425;SDS011;6785;57.918;12.530;2023-03-24T11:20:59;0.67;;;0.67;;
13425;SDS011;6785;57.918;12.530;2023-03-24T11:23:29;1.20;;;1.10;;
13425;SDS011;6785;57.918;12.530;2023-03-24T11:26:02;1.00;;;1.00;;
13425;SDS011;6785;57.918;12.530;2023-03-24T11:28:35;2.47;;;1.90;;
13425;SDS011;6785;57.918;12.530;2023-03-24T11:31:06;3.10;;;2.07;;
13425;SDS011;6785;57.918;12.530;2023-03-24T11:33:39;4.03;;;2.60;;
13425;SDS011;6785;57.918;12.530;2023-03-24T11:39:10;2.73;;;2.17;;
13425;SDS011;6785;57.918;12.530;2023-03-24T11:41:40;2.93;;;2.63;;
13425;SDS011;6785;57.918;12.530;2023-03-24T11:44:18;4.97;;;2.47;;
13425;SDS011;6785;57.918;12.530;2023-03-24T11:46:47;3.73;;;2.50;;
13425;SDS011;6785;57.918;12.530;2023-03-24T11:49:17;8.13;;;2.93;;
13425;SDS011;6785;57.918;12.530;2023-03-24T11:51:48;4.13;;;2.43;;
13425;SDS011;6785;57.918;12.530;2023-03-24T11:54:18;3.03;;;2.07;;
13425;SDS011;6785;57.918;12.530;2023-03-24T11:56:49;5.70;;;2.20;;
13425;SDS011;6785;57.918;12.530;2023-03-24T11:59:21;3.20;;;2.07;;
13425;SDS011;6785;57.918;12.530;2023-03-24T12:01:56;4.13;;;2.13;;
13425;SDS011;6785;57.918;12.530;2023-03-24T12:04:28;3.70;;;2.17;;
13425;SDS011;6785;57.918;12.530;2023-03-24T12:07:15;3.07;;;1.90;;
13425;SDS011;6785;57.918;12.530;2023-03-24T12:10:05;3.47;;;1.83;;
13425;SDS011;6785;57.918;12.530;2023-03-24T12:12:41;3.97;;;2.07;;
13425;SDS011;6785;57.918;12.530;2023-03-24T12:15:24;2.50;;;1.80;;
13425;SDS011;6785;57.918;12.530;2023-03-24T12:21:02;3.00;;;1.73;;
13425;SDS011;6785;57.918;12.530;2023-03-24T12:23:42;5.03;;;2.03;;
13425;SDS011;6785;57.918;12.530;2023-03-24T12:26:17;3.50;;;1.73;;
13425;SDS011;6785;57.918;12.530;2023-03-24T12:31:50;4.67;;;2.20;;
13425;SDS011;6785;57.918;12.530;2023-03-24T12:34:39;4.30;;;1.60;;
13425;SDS011;6785;57.918;12.530;2023-03-24T12:37:27;4.07;;;1.80;;
13425;SDS011;6785;57.918;12.530;2023-03-24T12:40:02;5.03;;;1.80;;
13425;SDS011;6785;57.918;12.530;2023-03-24T12:42:43;10.63;;;2.03;;
13425;SDS011;6785;57.918;12.530;2023-03-24T12:45:22;4.93;;;2.00;;
13425;SDS011;6785;57.918;12.530;2023-03-24T12:48:02;6.43;;;1.67;;
13425;SDS011;6785;57.918;12.530;2023-03-24T12:50:43;2.27;;;1.60;;
13425;SDS011;6785;57.918;12.530;2023-03-24T12:53:23;3.40;;;1.90;;
13425;SDS011;6785;57.918;12.530;2023-03-24T12:56:07;3.20;;;1.73;;
13425;SDS011;6785;57.918;12.530;2023-03-24T12:58:38;5.43;;;1.83;;
13425;SDS011;6785;57.918;12.530;2023-03-24T13:01:09;2.23;;;1.57;;
13425;SDS011;6785;57.918;12.530;2023-03-24T13:03:45;6.70;;;2.00;;
13425;SDS011;6785;57.918;12.530;2023-03-24T13:06:16;3.13;;;1.60;;
13425;SDS011;6785;57.918;12.530;2023-03-24T13:09:02;6.37;;;1.80;;
13425;SDS011;6785;57.918;12.530;2023-03-24T13:11:37;4.53;;;2.10;;
13425;SDS011;6785;57.918;12.530;2023-03-24T13:14:12;8.07;;;2.10;;
13425;SDS011;6785;57.918;12.530;2023-03-24T13:16:44;5.63;;;2.20;;
13425;SDS011;6785;57.918;12.530;2023-03-24T13:19:15;10.60;;;2.37;;
13425;SDS011;6785;57.918;12.530;2023-03-24T13:21:45;4.90;;;2.00;;
13425;SDS011;6785;57.918;12.530;2023-03-24T13:24:14;6.77;;;2.40;;
13425;SDS011;6785;57.918;12.530;2023-03-24T13:26:45;8.40;;;2.40;;
13425;SDS011;6785;57.918;12.530;2023-03-24T13:29:22;7.43;;;1.70;;
13425;SDS011;6785;57.918;12.530;2023-03-24T13:31:58;4.17;;;1.70;;
13425;SDS011;6785;57.918;12.530;2023-03-24T13:34:31;3.30;;;1.40;;
13425;SDS011;6785;57.918;12.530;2023-03-24T13:37:02;1.83;;;1.33;;
13425;SDS011;6785;57.918;12.530;2023-03-24T13:39:32;5.27;;;1.30;;
13425;SDS011;6785;57.918;12.530;2023-03-24T13:42:00;1.67;;;0.90;;
13425;SDS011;6785;57.918;12.530;2023-03-24T13:44:29;1.30;;;0.83;;
13425;SDS011;6785;57.918;12.530;2023-03-24T13:47:08;1.63;;;0.70;;
13425;SDS011;6785;57.918;12.530;2023-03-24T13:49:38;3.00;;;0.83;;
13425;SDS011;6785;57.918;12.530;2023-03-24T13:52:19;2.73;;;0.87;;
13425;SDS011;6785;57.918;12.530;2023-03-24T13:54:50;2.23;;;0.87;;
13425;SDS011;6785;57.918;12.530;2023-03-24T13:57:22;1.87;;;0.60;;
13425;SDS011;6785;57.918;12.530;2023-03-24T13:59:57;1.37;;;0.90;;
13425;SDS011;6785;57.918;12.530;2023-03-24T14:02:42;2.10;;;0.60;;
13425;SDS011;6785;57.918;12.530;2023-03-24T14:08:16;5.43;;;0.90;;
13425;SDS011;6785;57.918;12.530;2023-03-24T14:10:44;2.03;;;0.80;;
13425;SDS011;6785;57.918;12.530;2023-03-24T14:13:19;3.33;;;0.83;;
13425;SDS011;6785;57.918;12.530;2023-03-24T14:15:48;3.10;;;0.93;;
13425;SDS011;6785;57.918;12.530;2023-03-24T14:21:05;0.73;;;0.60;;
13425;SDS011;6785;57.918;12.530;2023-03-24T14:23:35;2.13;;;0.90;;
13425;SDS011;6785;57.918;12.530;2023-03-24T14:26:05;4.37;;;1.60;;
13425;SDS011;6785;57.918;12.530;2023-03-24T14:28:35;4.03;;;1.17;;
13425;SDS011;6785;57.918;12.530;2023-03-24T14:33:58;1.10;;;0.90;;
13425;SDS011;6785;57.918;12.530;2023-03-24T14:36:28;2.00;;;0.90;;
13425;SDS011;6785;57.918;12.530;2023-03-24T14:39:01;5.30;;;1.30;;
13425;SDS011;6785;57.918;12.530;2023-03-24T14:41:32;3.63;;;1.80;;
13425;SDS011;6785;57.918;12.530;2023-03-24T14:44:03;1.63;;;1.00;;
13425;SDS011;6785;57.918;12.530;2023-03-24T14:49:17;1.97;;;0.83;;
13425;SDS011;6785;57.918;12.530;2023-03-24T14:51:52;3.53;;;1.17;;
13425;SDS011;6785;57.918;12.530;2023-03-24T14:54:28;3.97;;;1.17;;
13425;SDS011;6785;57.918;12.530;2023-03-24T14:56:59;1.17;;;1.10;;
13425;SDS011;6785;57.918;12.530;2023-03-24T14:59:38;5.33;;;1.40;;
13425;SDS011;6785;57.918;12.530;2023-03-24T15:02:15;3.93;;;1.60;;
13425;SDS011;6785;57.918;12.530;2023-03-24T15:07:45;9.37;;;2.60;;
13425;SDS011;6785;57.918;12.530;2023-03-24T15:10:25;6.93;;;2.57;;
13425;SDS011;6785;57.918;12.530;2023-03-24T15:12:56;5.17;;;2.30;;
13425;SDS011;6785;57.918;12.530;2023-03-24T15:15:23;4.53;;;2.60;;
13425;SDS011;6785;57.918;12.530;2023-03-24T15:17:50;10.57;;;2.97;;
13425;SDS011;6785;57.918;12.530;2023-03-24T15:20:19;7.07;;;2.70;;
13425;SDS011;6785;57.918;12.530;2023-03-24T15:22:47;17.43;;;3.23;;
13425;SDS011;6785;57.918;12.530;2023-03-24T15:25:15;13.20;;;3.50;;
13425;SDS011;6785;57.918;12.530;2023-03-24T15:27:48;12.00;;;3.10;;
13425;SDS011;6785;57.918;12.530;2023-03-24T15:30:16;9.43;;;3.23;;
13425;SDS011;6785;57.918;12.530;2023-03-24T15:32:43;8.47;;;2.33;;
13425;SDS011;6785;57.918;12.530;2023-03-24T15:35:13;4.97;;;2.47;;
13425;SDS011;6785;57.918;12.530;2023-03-24T15:37:41;13.47;;;2.53;;